createdAt,value
2017-07-26T00:00:50.198Z,987.99
2017-07-26T00:02:00.519Z,988.03
2017-07-26T00:03:10.911Z,988
2017-07-26T00:04:20.945Z,987.96
2017-07-26T00:05:30.972Z,988
2017-07-26T00:06:41.309Z,987.99
2017-07-26T00:07:51.688Z,987.99
2017-07-26T00:09:02.099Z,988
2017-07-26T00:10:11.823Z,987.95
2017-07-26T00:11:22.157Z,987.94
2017-07-26T00:12:32.188Z,987.97
2017-07-26T00:13:42.566Z,987.95
2017-07-26T00:14:52.903Z,988.01
2017-07-26T00:16:03.250Z,987.98
2017-07-26T00:17:13.582Z,987.95
2017-07-26T00:18:23.609Z,987.98
2017-07-26T00:19:33.965Z,987.9
2017-07-26T00:20:44.365Z,987.92
2017-07-26T00:21:54.717Z,987.89
2017-07-26T00:23:05.078Z,987.94
2017-07-26T00:24:15.110Z,987.9
2017-07-26T00:25:25.449Z,987.9
2017-07-26T00:26:35.844Z,987.85
2017-07-26T00:27:45.881Z,987.85
2017-07-26T00:28:56.238Z,987.85
2017-07-26T00:30:06.591Z,987.89
2017-07-26T00:31:16.947Z,987.88
2017-07-26T00:32:27.359Z,987.87
2017-07-26T00:33:37.404Z,987.86
2017-07-26T00:34:47.437Z,987.87
2017-07-26T00:35:57.473Z,987.82
2017-07-26T00:37:07.822Z,987.84
2017-07-26T00:38:17.850Z,987.85
2017-07-26T00:39:27.871Z,987.85
2017-07-26T00:40:37.911Z,987.83
2017-07-26T00:41:48.266Z,987.81
2017-07-26T00:42:58.602Z,987.77
2017-07-26T00:44:08.648Z,987.77
2017-07-26T00:45:18.987Z,987.78
2017-07-26T00:46:29.336Z,987.75
2017-07-26T00:47:39.692Z,987.74
2017-07-26T00:48:50.020Z,987.7
2017-07-26T00:50:00.366Z,987.73
2017-07-26T00:51:10.701Z,987.6
2017-07-26T00:52:21.034Z,987.61
2017-07-26T00:53:30.751Z,987.64
2017-07-26T00:54:41.089Z,987.66
2017-07-26T00:55:51.469Z,987.6
2017-07-26T00:57:01.819Z,987.65
2017-07-26T00:58:12.159Z,987.63
2017-07-26T00:59:22.500Z,987.68
2017-07-26T01:00:32.844Z,987.65
2017-07-26T01:01:42.925Z,987.62
2017-07-26T01:02:52.641Z,987.55
2017-07-26T01:04:02.984Z,987.7
2017-07-26T01:05:13.327Z,987.65
2017-07-26T01:06:23.654Z,987.63
2017-07-26T01:07:33.377Z,987.63
2017-07-26T01:08:43.097Z,987.54
2017-07-26T01:09:53.441Z,987.58
2017-07-26T01:11:03.783Z,987.57
2017-07-26T01:12:14.122Z,987.56
2017-07-26T01:13:24.472Z,987.55
2017-07-26T01:14:34.822Z,987.56
2017-07-26T01:15:45.166Z,987.52
2017-07-26T01:16:55.517Z,987.53
2017-07-26T01:18:05.858Z,987.53
2017-07-26T01:19:16.214Z,987.55
2017-07-26T01:20:26.264Z,987.56
2017-07-26T01:21:36.608Z,987.51
2017-07-26T01:22:46.948Z,987.6
2017-07-26T01:23:57.317Z,987.52
2017-07-26T01:25:07.720Z,987.57
2017-07-26T01:26:18.073Z,987.52
2017-07-26T01:27:28.425Z,987.59
2017-07-26T01:28:38.760Z,987.56
2017-07-26T01:29:48.808Z,987.57
2017-07-26T01:30:59.201Z,987.6
2017-07-26T01:32:09.550Z,987.54
2017-07-26T01:33:19.615Z,987.53
2017-07-26T01:34:29.654Z,987.54
2017-07-26T01:35:39.379Z,987.47
2017-07-26T01:36:49.766Z,987.54
2017-07-26T01:38:00.133Z,987.61
2017-07-26T01:39:10.486Z,987.63
2017-07-26T01:40:20.209Z,987.55
2017-07-26T01:41:29.925Z,987.57
2017-07-26T01:42:40.325Z,987.63
2017-07-26T01:43:50.660Z,987.63
2017-07-26T01:45:00.699Z,987.6
2017-07-26T01:46:11.048Z,987.55
2017-07-26T01:47:21.084Z,987.58
2017-07-26T01:48:31.466Z,987.59
2017-07-26T01:49:41.804Z,987.64
2017-07-26T01:50:52.148Z,987.62
2017-07-26T01:52:02.490Z,987.61
2017-07-26T01:53:12.837Z,987.63
2017-07-26T01:54:23.229Z,987.6
2017-07-26T01:55:33.246Z,987.61
2017-07-26T01:56:43.573Z,987.61
2017-07-26T01:57:53.599Z,987.62
2017-07-26T01:59:03.955Z,987.69
2017-07-26T02:00:14.005Z,987.62
2017-07-26T02:01:24.353Z,987.66
2017-07-26T02:02:34.392Z,987.66
2017-07-26T02:03:44.738Z,987.61
2017-07-26T02:04:54.781Z,987.53
2017-07-26T02:06:05.140Z,987.58
2017-07-26T02:07:15.476Z,987.59
2017-07-26T02:08:25.189Z,987.58
2017-07-26T02:09:35.222Z,987.57
2017-07-26T02:10:45.252Z,987.58
2017-07-26T02:11:55.293Z,987.61
2017-07-26T02:13:05.641Z,987.5
2017-07-26T02:14:15.375Z,987.58
2017-07-26T02:15:25.736Z,987.62
2017-07-26T02:16:36.079Z,987.62
2017-07-26T02:17:46.151Z,987.65
2017-07-26T02:18:56.492Z,987.64
2017-07-26T02:20:06.523Z,987.64
2017-07-26T02:21:16.882Z,987.72
2017-07-26T02:22:27.219Z,987.68
2017-07-26T02:23:37.299Z,987.71
2017-07-26T02:24:47.334Z,987.71
2017-07-26T02:25:57.671Z,987.69
2017-07-26T02:27:07.700Z,987.67
2017-07-26T02:28:18.050Z,987.67
2017-07-26T02:29:28.462Z,987.66
2017-07-26T02:30:38.493Z,987.63
2017-07-26T02:31:48.824Z,987.64
2017-07-26T02:32:59.157Z,987.64
2017-07-26T02:34:09.199Z,987.63
2017-07-26T02:35:19.547Z,987.64
2017-07-26T02:36:29.893Z,987.61
2017-07-26T02:37:39.612Z,987.61
2017-07-26T02:38:49.951Z,987.6
2017-07-26T02:40:00.280Z,987.58
2017-07-26T02:41:10.688Z,987.56
2017-07-26T02:42:21.045Z,987.57
2017-07-26T02:43:31.412Z,987.59
2017-07-26T02:44:41.759Z,987.55
2017-07-26T02:45:52.098Z,987.5
2017-07-26T02:47:02.118Z,987.54
2017-07-26T02:48:12.167Z,987.48
2017-07-26T02:49:22.521Z,987.43
2017-07-26T02:50:32.867Z,987.5
2017-07-26T02:51:43.222Z,987.47
2017-07-26T02:52:53.564Z,987.47
2017-07-26T02:54:03.909Z,987.42
2017-07-26T02:55:14.242Z,987.44
2017-07-26T02:56:24.264Z,987.4
2017-07-26T02:57:34.626Z,987.38
2017-07-26T02:58:45.029Z,987.35
2017-07-26T02:59:55.373Z,987.37
2017-07-26T03:01:05.705Z,987.37
2017-07-26T03:32:58.626Z,987.31
2017-07-26T03:34:08.654Z,987.33
2017-07-26T03:35:18.676Z,987.32
2017-07-26T03:36:28.694Z,987.34
2017-07-26T03:37:39.034Z,987.25
2017-07-26T03:38:49.062Z,987.27
2017-07-26T03:39:59.410Z,987.26
2017-07-26T03:41:09.756Z,987.31
2017-07-26T03:42:20.091Z,987.27
2017-07-26T03:43:30.428Z,987.28
2017-07-26T03:44:40.822Z,987.26
2017-07-26T03:45:50.533Z,987.23
2017-07-26T03:47:00.577Z,987.22
2017-07-26T03:48:10.920Z,987.21
2017-07-26T03:49:21.252Z,987.19
2017-07-26T03:50:31.653Z,987.16
2017-07-26T03:51:41.984Z,987.17
2017-07-26T03:52:52.325Z,987.17
2017-07-26T03:54:02.356Z,987.19
2017-07-26T03:55:12.395Z,987.18
2017-07-26T03:56:22.731Z,987.17
2017-07-26T03:57:33.075Z,987.11
2017-07-26T03:58:43.441Z,987.15
2017-07-26T03:59:53.474Z,987.21
2017-07-26T04:01:03.202Z,987.17
2017-07-26T04:02:13.547Z,987.14
2017-07-26T04:03:23.876Z,987.13
2017-07-26T04:04:34.211Z,987.16
2017-07-26T04:05:44.544Z,987.15
2017-07-26T04:06:54.588Z,987.17
2017-07-26T04:08:04.673Z,987.16
2017-07-26T04:09:15.007Z,987.2
2017-07-26T04:10:25.038Z,987.2
2017-07-26T04:11:35.368Z,987.17
2017-07-26T04:12:45.729Z,987.21
2017-07-26T04:13:56.120Z,987.21
2017-07-26T04:15:06.151Z,987.21
2017-07-26T04:16:16.197Z,987.2
2017-07-26T04:17:26.548Z,987.24
2017-07-26T04:18:36.588Z,987.19
2017-07-26T04:19:46.634Z,987.22
2017-07-26T04:20:56.993Z,987.19
2017-07-26T04:22:07.348Z,987.19
2017-07-26T04:23:17.711Z,987.2
2017-07-26T04:24:28.046Z,987.2
2017-07-26T04:25:38.464Z,987.22
2017-07-26T04:26:48.814Z,987.19
2017-07-26T04:27:58.527Z,987.27
2017-07-26T04:29:08.891Z,987.18
2017-07-26T04:30:19.238Z,987.2
2017-07-26T04:31:29.653Z,987.26
2017-07-26T04:32:40.014Z,987.23
2017-07-26T04:33:50.355Z,987.25
2017-07-26T04:35:00.394Z,987.23
2017-07-26T04:36:10.745Z,987.25
2017-07-26T04:37:21.131Z,987.23
2017-07-26T04:38:31.473Z,987.23
2017-07-26T04:39:41.487Z,987.25
2017-07-26T04:40:51.516Z,987.21
2017-07-26T04:42:01.876Z,987.23
2017-07-26T04:43:12.226Z,987.2
2017-07-26T04:44:22.269Z,987.19
2017-07-26T04:45:32.295Z,987.2
2017-07-26T04:46:42.630Z,987.15
2017-07-26T04:47:52.354Z,987.15
2017-07-26T04:49:02.716Z,987.15
2017-07-26T04:50:13.088Z,987.17
2017-07-26T04:51:23.436Z,987.14
2017-07-26T04:52:33.159Z,987.14
2017-07-26T04:53:43.500Z,987.13
2017-07-26T04:54:53.626Z,987.15
2017-07-26T04:56:03.989Z,987.17
2017-07-26T04:57:14.341Z,987.16
2017-07-26T04:58:24.698Z,987.15
2017-07-26T04:59:35.025Z,987.19
2017-07-26T05:00:45.366Z,987.18
2017-07-26T05:01:55.704Z,987.15
2017-07-26T05:03:06.041Z,987.11
2017-07-26T05:04:16.395Z,987.2
2017-07-26T05:05:26.737Z,987.2
2017-07-26T05:06:37.080Z,987.17
2017-07-26T05:07:47.109Z,987.16
2017-07-26T05:08:57.458Z,987.17
2017-07-26T05:10:07.234Z,987.14
2017-07-26T05:11:17.603Z,987.12
2017-07-26T05:12:28.003Z,987.12
2017-07-26T05:13:38.040Z,987.16
2017-07-26T05:14:48.376Z,987.07
2017-07-26T05:15:58.110Z,987.12
2017-07-26T05:17:08.466Z,987.09
2017-07-26T05:18:18.863Z,987.17
2017-07-26T05:19:28.586Z,987.16
2017-07-26T05:20:38.920Z,987.13
2017-07-26T05:21:49.282Z,987.11
2017-07-26T05:22:59.653Z,987.14
2017-07-26T05:24:10.085Z,987.15
2017-07-26T05:25:20.418Z,987.18
2017-07-26T05:26:30.769Z,987.16
2017-07-26T05:27:41.110Z,987.24
2017-07-26T05:28:51.456Z,987.21
2017-07-26T05:30:01.840Z,987.27
2017-07-26T05:31:11.884Z,987.26
2017-07-26T05:32:21.905Z,987.28
2017-07-26T05:33:32.253Z,987.26
2017-07-26T05:34:42.306Z,987.25
2017-07-26T05:35:52.342Z,987.19
2017-07-26T05:37:02.372Z,987.15
2017-07-26T05:38:12.416Z,987.23
2017-07-26T05:39:22.754Z,987.18
2017-07-26T05:40:32.799Z,987.2
2017-07-26T05:41:43.207Z,987.18
2017-07-26T05:42:53.550Z,987.17
2017-07-26T05:44:03.588Z,987.17
2017-07-26T05:45:13.938Z,987.11
2017-07-26T05:46:23.966Z,987.19
2017-07-26T05:47:34.011Z,987.21
2017-07-26T05:48:44.358Z,987.15
2017-07-26T05:49:54.685Z,987.14
2017-07-26T05:51:04.721Z,987.15
2017-07-26T05:52:15.072Z,987.13
2017-07-26T05:53:25.414Z,987.13
2017-07-26T05:54:35.764Z,987.12
2017-07-26T05:55:46.104Z,987.13
2017-07-26T05:56:56.431Z,987.14
2017-07-26T05:58:06.773Z,987.08
2017-07-26T05:59:17.112Z,987.19
2017-07-26T06:00:27.130Z,987.1
2017-07-26T06:01:37.465Z,987.12
2017-07-26T06:02:47.488Z,987.11
2017-07-26T06:03:57.532Z,987.14
2017-07-26T06:05:07.926Z,987.17
2017-07-26T06:06:18.268Z,987.13
2017-07-26T06:07:28.615Z,987.13
2017-07-26T06:08:38.973Z,987.11
2017-07-26T06:09:49.315Z,987.19
2017-07-26T06:10:59.366Z,987.16
2017-07-26T06:12:09.722Z,987.2
2017-07-26T06:13:19.759Z,987.13
2017-07-26T06:14:30.102Z,987.09
2017-07-26T06:15:40.457Z,987.11
2017-07-26T06:16:50.848Z,987.08
2017-07-26T06:18:01.192Z,987.17
2017-07-26T06:19:11.554Z,987.06
2017-07-26T06:20:21.901Z,987.08
2017-07-26T06:21:32.266Z,987.05
2017-07-26T06:22:42.630Z,987.11
2017-07-26T06:23:52.991Z,987.05
2017-07-26T06:25:03.029Z,987
2017-07-26T06:26:13.050Z,986.92
2017-07-26T06:27:23.396Z,987.01
2017-07-26T06:28:33.747Z,986.95
2017-07-26T06:29:44.101Z,986.93
2017-07-26T06:30:54.437Z,986.99
2017-07-26T06:32:04.481Z,986.94
2017-07-26T06:33:14.826Z,986.84
2017-07-26T06:34:25.227Z,986.87
2017-07-26T06:35:35.264Z,986.92
2017-07-26T06:36:45.291Z,986.9
2017-07-26T06:37:55.356Z,986.95
2017-07-26T06:39:05.376Z,986.87
2017-07-26T06:40:15.736Z,986.9
2017-07-26T06:41:25.766Z,986.88
2017-07-26T06:42:36.123Z,986.93
2017-07-26T06:43:46.161Z,986.83
2017-07-26T06:44:56.184Z,986.9
2017-07-26T06:46:06.579Z,986.9
2017-07-26T06:47:16.618Z,986.91
2017-07-26T06:48:26.969Z,986.93
2017-07-26T06:49:37.304Z,986.92
2017-07-26T06:50:47.666Z,986.87
2017-07-26T06:51:58.072Z,986.84
2017-07-26T06:53:08.421Z,986.87
2017-07-26T06:54:18.781Z,986.82
2017-07-26T06:55:28.514Z,986.89
2017-07-26T06:56:38.864Z,986.83
2017-07-26T06:57:48.954Z,986.84
2017-07-26T06:58:59.296Z,986.83
2017-07-26T07:00:09.346Z,986.84
2017-07-26T07:01:19.693Z,986.9
2017-07-26T07:02:30.053Z,986.92
2017-07-26T07:03:40.442Z,986.9
2017-07-26T07:04:50.463Z,986.89
2017-07-26T07:06:00.829Z,986.89
2017-07-26T07:07:10.871Z,986.91
2017-07-26T07:08:20.905Z,986.93
2017-07-26T07:09:31.304Z,986.96
2017-07-26T07:10:41.655Z,986.95
2017-07-26T07:11:51.701Z,986.99
2017-07-26T07:13:02.063Z,987.01
2017-07-26T07:14:12.426Z,986.98
2017-07-26T07:15:22.814Z,986.98
2017-07-26T07:16:33.240Z,987
2017-07-26T07:17:43.596Z,987.04
2017-07-26T07:18:53.939Z,987.03
2017-07-26T07:20:03.970Z,987.01
2017-07-26T07:21:14.352Z,987.04
2017-07-26T07:22:24.702Z,987.04
2017-07-26T07:23:35.066Z,987.05
2017-07-26T07:24:45.415Z,987.03
2017-07-26T07:25:55.452Z,987.06
2017-07-26T07:27:05.488Z,987
2017-07-26T07:28:15.534Z,987.02
2017-07-26T07:29:25.889Z,987.03
2017-07-26T07:30:36.228Z,987.03
2017-07-26T07:31:46.575Z,987.11
2017-07-26T07:32:56.977Z,987.14
2017-07-26T07:34:07.008Z,987.16
2017-07-26T07:35:17.349Z,987.13
2017-07-26T07:36:27.692Z,987.17
2017-07-26T07:37:37.732Z,987.15
2017-07-26T07:38:48.130Z,987.15
2017-07-26T07:39:58.498Z,987.15
2017-07-26T07:41:08.531Z,987.14
2017-07-26T07:42:18.853Z,987.13
2017-07-26T07:43:28.876Z,987.11
2017-07-26T07:44:38.969Z,987.1
2017-07-26T07:45:49.004Z,987.12
2017-07-26T07:46:59.346Z,987.11
2017-07-26T07:48:09.393Z,987.07
2017-07-26T07:49:19.741Z,987.06
2017-07-26T07:50:29.821Z,987.06
2017-07-26T07:51:40.180Z,987.05
2017-07-26T07:52:50.517Z,987.05
2017-07-26T07:54:00.541Z,987.05
2017-07-26T07:55:10.889Z,987.03
2017-07-26T07:56:21.280Z,987.04
2017-07-26T07:57:31.645Z,987.05
2017-07-26T07:58:41.984Z,987.05
2017-07-26T07:59:52.338Z,987.02
2017-07-26T08:01:02.679Z,986.99
2017-07-26T08:02:13.086Z,987.04
2017-07-26T08:03:23.145Z,987.03
2017-07-26T08:04:33.187Z,987.05
2017-07-26T08:05:43.523Z,986.99
2017-07-26T08:06:53.885Z,987.01
2017-07-26T08:08:04.435Z,987.06
2017-07-26T08:09:14.795Z,987.06
2017-07-26T08:10:25.147Z,987.04
2017-07-26T08:11:35.499Z,987.07
2017-07-26T08:12:45.875Z,987.08
2017-07-26T08:13:55.897Z,987.1
2017-07-26T08:15:05.934Z,987.1
2017-07-26T08:16:16.281Z,987.11
2017-07-26T08:17:26.323Z,987.14
2017-07-26T08:18:36.670Z,987.14
2017-07-26T08:19:47.062Z,987.13
2017-07-26T08:20:57.084Z,987.17
2017-07-26T08:22:07.115Z,987.13
2017-07-26T08:23:17.167Z,987.17
2017-07-26T08:24:27.514Z,987.15
2017-07-26T08:25:37.587Z,987.15
2017-07-26T08:26:47.947Z,987.15
2017-07-26T08:27:58.299Z,987.2
2017-07-26T08:29:08.651Z,987.2
2017-07-26T08:30:19.020Z,987.17
2017-07-26T08:31:29.100Z,987.17
2017-07-26T08:32:39.456Z,987.17
2017-07-26T08:33:49.788Z,987.18
2017-07-26T08:34:59.820Z,987.21
2017-07-26T08:36:10.178Z,987.19
2017-07-26T08:37:20.246Z,987.14
2017-07-26T08:38:30.280Z,987.1
2017-07-26T08:39:40.620Z,987.09
2017-07-26T08:40:50.640Z,987.1
2017-07-26T08:42:00.685Z,987.07
2017-07-26T08:43:10.947Z,987.07
2017-07-26T08:44:20.369Z,987.08
2017-07-26T08:45:30.730Z,987.1
2017-07-26T08:46:41.077Z,987.13
2017-07-26T08:47:51.118Z,987.11
2017-07-26T08:49:00.854Z,987.12
2017-07-26T08:50:11.234Z,987.1
2017-07-26T08:51:21.597Z,987.11
2017-07-26T08:52:31.959Z,987.09
2017-07-26T08:53:42.033Z,987.12
2017-07-26T08:54:52.448Z,987.17
2017-07-26T08:56:02.817Z,987.13
2017-07-26T08:57:12.869Z,987.12
2017-07-26T08:58:23.215Z,987.14
2017-07-26T08:59:33.582Z,987.16
2017-07-26T09:00:43.690Z,987.14
2017-07-26T09:01:54.029Z,987.13
2017-07-26T09:03:04.386Z,987.11
2017-07-26T09:04:14.731Z,987.1
2017-07-26T09:05:25.105Z,987.07
2017-07-26T09:06:35.531Z,987.02
2017-07-26T09:07:45.905Z,987.05
2017-07-26T09:08:55.957Z,987.06
2017-07-26T09:10:06.296Z,987.13
2017-07-26T09:11:16.650Z,987.14
2017-07-26T09:12:27.016Z,987.16
2017-07-26T09:13:37.355Z,987.12
2017-07-26T09:14:47.705Z,987.14
2017-07-26T09:15:58.071Z,987.13
2017-07-26T09:17:08.437Z,987.17
2017-07-26T09:18:18.850Z,987.23
2017-07-26T09:19:29.243Z,987.22
2017-07-26T09:20:39.588Z,987.25
2017-07-26T09:21:49.309Z,987.24
2017-07-26T09:22:59.656Z,987.21
2017-07-26T09:24:09.735Z,987.26
2017-07-26T09:25:20.082Z,987.27
2017-07-26T09:26:30.437Z,987.23
2017-07-26T09:27:40.781Z,987.24
2017-07-26T09:28:51.146Z,987.25
2017-07-26T09:30:01.241Z,987.27
2017-07-26T09:31:11.278Z,987.24
2017-07-26T09:32:21.626Z,987.24
2017-07-26T09:33:31.664Z,987.21
2017-07-26T09:34:41.709Z,987.22
2017-07-26T09:35:52.061Z,987.2
2017-07-26T09:37:02.413Z,987.24
2017-07-26T09:38:12.761Z,987.18
2017-07-26T09:39:23.113Z,987.14
2017-07-26T09:40:33.474Z,987.1
2017-07-26T09:41:43.511Z,987.11
2017-07-26T09:42:53.866Z,987.1
2017-07-26T09:44:04.200Z,987.03
2017-07-26T09:45:14.226Z,987.05
2017-07-26T09:46:24.253Z,987.05
2017-07-26T09:47:34.284Z,987.07
2017-07-26T09:48:44.643Z,987.03
2017-07-26T09:49:54.993Z,986.97
2017-07-26T09:51:05.353Z,986.98
2017-07-26T09:52:15.706Z,986.95
2017-07-26T09:53:25.758Z,986.99
2017-07-26T09:54:36.167Z,986.98
2017-07-26T09:55:46.542Z,987.01
2017-07-26T09:56:56.910Z,987.01
2017-07-26T09:58:07.280Z,987.05
2017-07-26T09:59:17.340Z,987.05
2017-07-26T10:00:27.743Z,987.02
2017-07-26T10:01:38.135Z,987.05
2017-07-26T10:02:47.549Z,987.03
2017-07-26T10:03:57.603Z,987.06
2017-07-26T10:05:07.986Z,987.07
2017-07-26T10:06:18.399Z,987.09
2017-07-26T10:07:28.445Z,987.11
2017-07-26T10:08:38.495Z,987.19
2017-07-26T10:09:48.848Z,987.15
2017-07-26T10:10:58.900Z,987.14
2017-07-26T10:12:08.956Z,987.15
2017-07-26T10:13:19.314Z,987.14
2017-07-26T10:14:29.366Z,987.17
2017-07-26T10:15:39.727Z,987.16
2017-07-26T10:16:50.088Z,987.17
2017-07-26T10:18:00.499Z,987.17
2017-07-26T10:19:10.240Z,987.15
2017-07-26T10:20:20.619Z,987.2
2017-07-26T10:21:30.664Z,987.24
2017-07-26T10:22:40.690Z,987.24
2017-07-26T10:23:51.080Z,987.2
2017-07-26T10:25:01.435Z,987.22
2017-07-26T10:26:11.809Z,987.21
2017-07-26T10:27:21.856Z,987.18
2017-07-26T10:28:32.216Z,987.14
2017-07-26T10:29:42.638Z,987.16
2017-07-26T10:30:53.024Z,987.12
2017-07-26T10:32:03.394Z,987.06
2017-07-26T10:33:13.762Z,987.05
2017-07-26T10:34:24.143Z,987.05
2017-07-26T10:35:34.565Z,987.03
2017-07-26T10:36:44.606Z,986.99
2017-07-26T10:37:54.972Z,986.99
2017-07-26T10:39:05.323Z,986.99
2017-07-26T10:40:15.683Z,987.03
2017-07-26T10:41:26.109Z,987.04
2017-07-26T10:42:36.464Z,987.01
2017-07-26T10:43:46.525Z,986.92
2017-07-26T10:44:56.885Z,986.92
2017-07-26T10:46:07.287Z,986.92
2017-07-26T10:47:17.360Z,986.9
2017-07-26T10:48:27.403Z,986.86
2017-07-26T10:49:37.760Z,986.84
2017-07-26T10:50:48.110Z,986.75
2017-07-26T10:51:58.142Z,986.82
2017-07-26T10:53:08.246Z,986.77
2017-07-26T10:54:18.341Z,986.78
2017-07-26T10:55:28.381Z,986.73
2017-07-26T10:56:38.717Z,986.67
2017-07-26T10:57:49.067Z,986.63
2017-07-26T10:58:59.112Z,986.63
2017-07-26T11:00:09.497Z,986.63
2017-07-26T11:01:19.868Z,986.61
2017-07-26T11:02:30.236Z,986.64
2017-07-26T11:03:40.281Z,986.6
2017-07-26T11:04:50.669Z,986.6
2017-07-26T11:06:00.726Z,986.55
2017-07-26T11:07:10.773Z,986.52
2017-07-26T11:08:21.173Z,986.48
2017-07-26T11:09:31.515Z,986.47
2017-07-26T11:10:41.288Z,986.52
2017-07-26T11:11:51.350Z,986.57
2017-07-26T11:13:01.411Z,986.68
2017-07-26T11:14:11.472Z,986.67
2017-07-26T11:15:21.842Z,986.64
2017-07-26T11:16:32.213Z,986.64
2017-07-26T11:17:42.267Z,986.57
2017-07-26T11:18:52.616Z,986.67
2017-07-26T11:20:02.656Z,986.7
2017-07-26T11:21:12.691Z,986.68
2017-07-26T11:22:23.099Z,986.81
2017-07-26T11:23:33.453Z,986.73
2017-07-26T11:24:43.816Z,986.74
2017-07-26T11:25:54.162Z,986.78
2017-07-26T11:27:04.189Z,986.81
2017-07-26T11:28:14.606Z,986.78
2017-07-26T11:29:24.948Z,986.83
2017-07-26T11:30:35.311Z,986.9
2017-07-26T11:31:45.679Z,986.91
2017-07-26T11:32:56.029Z,986.82
2017-07-26T11:34:06.135Z,986.9
2017-07-26T11:35:16.487Z,986.84
2017-07-26T11:36:26.517Z,986.86
2017-07-26T11:37:36.552Z,986.81
2017-07-26T11:38:46.908Z,986.96
2017-07-26T11:39:57.005Z,986.87
2017-07-26T11:41:07.451Z,986.91
2017-07-26T11:42:17.494Z,987.01
2017-07-26T11:43:27.850Z,986.98
2017-07-26T11:44:37.890Z,987.03
2017-07-26T11:45:48.258Z,986.96
2017-07-26T11:46:58.616Z,986.96
2017-07-26T11:48:08.675Z,986.95
2017-07-26T11:49:18.723Z,987
2017-07-26T11:50:29.071Z,987.08
2017-07-26T11:51:39.448Z,987.06
2017-07-26T11:52:49.514Z,987.16
2017-07-26T11:53:59.550Z,987.16
2017-07-26T11:55:09.901Z,987.24
2017-07-26T11:56:20.253Z,987.19
2017-07-26T11:57:30.346Z,987.16
2017-07-26T11:58:40.687Z,987.11
2017-07-26T11:59:51.068Z,987.19
2017-07-26T12:01:01.107Z,987.1
2017-07-26T12:02:11.143Z,987.22
2017-07-26T12:03:21.557Z,987.36
2017-07-26T12:04:31.281Z,987.22
2017-07-26T12:05:41.628Z,987.18
2017-07-26T12:06:51.978Z,987.16
2017-07-26T12:08:02.322Z,987.28
2017-07-26T12:09:12.695Z,987.28
2017-07-26T12:10:23.047Z,987.25
2017-07-26T12:11:33.082Z,987.26
2017-07-26T12:12:43.438Z,987.29
2017-07-26T12:13:53.487Z,987.29
2017-07-26T12:15:03.886Z,987.35
2017-07-26T12:16:14.241Z,987.28
2017-07-26T12:17:24.585Z,987.26
2017-07-26T12:18:34.649Z,987.3
2017-07-26T12:19:45.015Z,987.29
2017-07-26T12:20:55.364Z,987.2
2017-07-26T12:22:05.711Z,987.26
2017-07-26T12:23:15.756Z,987.25
2017-07-26T12:24:26.092Z,987.2
2017-07-26T12:25:36.429Z,987.16
2017-07-26T12:26:46.824Z,987.2
2017-07-26T12:27:57.156Z,987.21
2017-07-26T12:29:07.539Z,987.21
2017-07-26T12:30:17.877Z,987.23
2017-07-26T12:31:28.244Z,987.11
2017-07-26T12:32:38.634Z,987.11
2017-07-26T12:33:48.972Z,987.12
2017-07-26T12:34:59.310Z,987.06
2017-07-26T12:36:09.655Z,987.16
2017-07-26T12:37:19.688Z,987.11
2017-07-26T12:38:30.093Z,987.01
2017-07-26T12:39:40.430Z,987.07
2017-07-26T12:40:50.785Z,987.05
2017-07-26T12:42:01.129Z,987.11
2017-07-26T12:43:11.499Z,987.02
2017-07-26T12:44:21.890Z,987.14
2017-07-26T12:45:32.220Z,987.09
2017-07-26T12:46:42.572Z,987.05
2017-07-26T12:47:52.924Z,986.98
2017-07-26T12:49:03.273Z,987.07
2017-07-26T12:50:13.626Z,987.09
2017-07-26T12:51:23.978Z,987.03
2017-07-26T12:52:34.319Z,987.11
2017-07-26T12:53:44.666Z,987.02
2017-07-26T12:54:55.023Z,987.05
2017-07-26T12:56:05.424Z,987.15
2017-07-26T12:57:15.774Z,986.96
2017-07-26T12:58:26.154Z,987.03
2017-07-26T12:59:36.200Z,986.93
2017-07-26T13:00:46.556Z,987.05
2017-07-26T13:01:56.904Z,987.07
2017-07-26T13:03:07.266Z,987.1
2017-07-26T13:04:17.294Z,987.05
2017-07-26T13:05:27.654Z,987.08
2017-07-26T13:06:37.697Z,987.07
2017-07-26T13:07:48.073Z,987.04
2017-07-26T13:08:58.434Z,987.04
2017-07-26T13:10:08.471Z,987.06
2017-07-26T13:11:18.823Z,987.08
2017-07-26T13:12:29.205Z,987.16
2017-07-26T13:13:39.564Z,987.01
2017-07-26T13:14:49.937Z,987.02
2017-07-26T13:16:00.306Z,986.97
2017-07-26T13:17:10.335Z,987.07
2017-07-26T13:18:20.683Z,987.04
2017-07-26T13:19:30.778Z,987.02
2017-07-26T13:20:41.132Z,986.99
2017-07-26T13:21:51.494Z,987.09
2017-07-26T13:23:01.839Z,987.05
2017-07-26T13:24:12.223Z,986.99
2017-07-26T13:25:22.322Z,987.1
2017-07-26T13:26:32.683Z,987.01
2017-07-26T13:27:43.029Z,987.01
2017-07-26T13:28:53.402Z,987.04
2017-07-26T13:30:03.751Z,986.95
2017-07-26T13:31:13.841Z,986.98
2017-07-26T13:32:23.890Z,986.98
2017-07-26T13:33:34.271Z,986.98
2017-07-26T13:34:44.611Z,986.93
2017-07-26T13:35:54.968Z,987.1
2017-07-26T13:37:05.014Z,986.98
2017-07-26T13:38:15.050Z,986.96
2017-07-26T13:39:25.397Z,986.97
2017-07-26T13:40:35.440Z,986.82
2017-07-26T13:41:45.809Z,986.93
2017-07-26T13:42:55.543Z,986.92
2017-07-26T13:44:05.898Z,986.85
2017-07-26T13:45:16.257Z,986.89
2017-07-26T13:46:26.609Z,987
2017-07-26T13:47:36.653Z,987.02
2017-07-26T13:48:47.087Z,986.94
2017-07-26T13:49:57.141Z,986.93
2017-07-26T13:51:07.180Z,986.99
2017-07-26T13:52:17.553Z,986.92
2017-07-26T13:53:28.310Z,987
2017-07-26T13:54:43.289Z,986.96
2017-07-26T13:55:58.635Z,986.96
2017-07-26T13:57:08.366Z,986.91
2017-07-26T13:58:18.736Z,986.91
2017-07-26T13:59:29.095Z,986.84
2017-07-26T14:00:39.529Z,986.98
2017-07-26T14:01:49.551Z,986.9
2017-07-26T14:02:59.968Z,986.89
2017-07-26T14:04:10.026Z,986.87
2017-07-26T14:05:20.404Z,986.83
2017-07-26T14:06:30.816Z,986.88
2017-07-26T14:07:40.888Z,986.82
2017-07-26T14:08:52.139Z,986.79
2017-07-26T14:10:02.513Z,986.93
2017-07-26T14:11:12.568Z,986.69
2017-07-26T14:12:22.968Z,986.75
2017-07-26T14:13:33.082Z,986.78
2017-07-26T14:14:43.159Z,986.89
2017-07-26T14:15:53.237Z,986.76
2017-07-26T14:17:03.334Z,986.78
2017-07-26T14:18:13.769Z,986.73
2017-07-26T14:19:24.355Z,987.03
2017-07-26T14:20:34.741Z,986.73
2017-07-26T14:21:45.158Z,986.69
2017-07-26T14:22:55.211Z,986.76
2017-07-26T14:24:05.639Z,986.71
2017-07-26T14:25:16.001Z,986.8
2017-07-26T14:26:26.399Z,986.88
2017-07-26T14:27:36.839Z,986.86
2017-07-26T14:28:47.211Z,986.93
2017-07-26T14:29:57.648Z,986.86
2017-07-26T14:31:08.000Z,986.82
2017-07-26T14:32:17.746Z,986.93
2017-07-26T14:33:27.855Z,986.91
2017-07-26T14:34:38.230Z,986.91
2017-07-26T14:35:48.658Z,986.84
2017-07-26T14:36:59.035Z,986.82
2017-07-26T14:38:09.424Z,986.94
2017-07-26T14:39:19.780Z,986.88
2017-07-26T14:40:30.145Z,986.8
2017-07-26T14:41:40.512Z,986.88
2017-07-26T14:42:50.883Z,986.8
2017-07-26T14:44:01.254Z,987.02
2017-07-26T14:45:11.304Z,986.92
2017-07-26T14:46:21.681Z,986.88
2017-07-26T14:47:31.780Z,986.85
2017-07-26T14:48:41.871Z,986.9
2017-07-26T14:49:52.473Z,986.87
2017-07-26T14:51:02.537Z,986.82
2017-07-26T14:52:12.920Z,986.82
2017-07-26T14:53:23.788Z,986.82
2017-07-26T14:54:39.553Z,986.79
2017-07-26T14:55:57.557Z,986.76
2017-07-26T14:57:10.962Z,986.67
2017-07-26T14:58:21.366Z,986.74
2017-07-26T14:59:31.727Z,986.71
2017-07-26T15:00:42.075Z,986.7
2017-07-26T15:01:52.135Z,986.78
2017-07-26T15:03:02.507Z,986.73
2017-07-26T15:04:12.896Z,986.73
2017-07-26T15:05:22.994Z,986.69
2017-07-26T15:06:33.352Z,986.76
2017-07-26T15:07:43.721Z,986.8
2017-07-26T15:08:54.078Z,986.74
2017-07-26T15:10:04.446Z,986.77
2017-07-26T15:11:14.837Z,986.86